createdAt,value
2023-09-10T00:00:24.044Z,20.31
2023-09-10T00:02:50.574Z,20.20
2023-09-10T00:05:17.243Z,20.20
2023-09-10T00:07:43.804Z,20.18
2023-09-10T00:10:10.632Z,20.13
2023-09-10T00:12:37.255Z,20.11
2023-09-10T00:15:05.425Z,20.11
2023-09-10T00:17:31.995Z,20.05
2023-09-10T00:19:58.582Z,20.02
2023-09-10T00:22:25.138Z,19.97
2023-09-10T00:24:51.736Z,19.93
2023-09-10T00:27:18.271Z,19.91
2023-09-10T00:29:44.810Z,19.88
2023-09-10T00:32:11.385Z,19.87
2023-09-10T00:34:39.760Z,19.81
2023-09-10T00:37:08.659Z,19.77
2023-09-10T00:39:35.262Z,19.75
2023-09-10T00:42:01.786Z,19.71
2023-09-10T00:44:28.435Z,19.68
2023-09-10T00:46:55.789Z,19.66
2023-09-10T00:49:22.647Z,19.62
2023-09-10T00:51:49.976Z,19.54
2023-09-10T00:54:17.893Z,19.55
2023-09-10T00:56:44.566Z,19.50
2023-09-10T00:59:11.388Z,19.47
2023-09-10T01:01:38.147Z,19.45
2023-09-10T01:04:04.954Z,19.43
2023-09-10T01:06:31.615Z,19.42
2023-09-10T01:08:58.254Z,19.40
2023-09-10T01:11:45.751Z,19.43
2023-09-10T01:14:32.520Z,19.39
2023-09-10T01:17:09.421Z,19.41
2023-09-10T01:20:13.162Z,19.34
2023-09-10T01:23:02.440Z,19.32
2023-09-10T01:25:30.287Z,19.29
2023-09-10T01:27:56.802Z,19.21
2023-09-10T01:30:23.467Z,19.20
2023-09-10T01:32:57.787Z,19.20
2023-09-10T01:35:43.297Z,19.16
2023-09-10T01:38:27.604Z,19.13
2023-09-10T01:41:03.719Z,19.13
2023-09-10T01:43:32.388Z,19.09
2023-09-10T01:45:59.086Z,19.09
2023-09-10T01:48:27.751Z,19.03
2023-09-10T01:50:55.415Z,19.06
2023-09-10T01:53:21.945Z,19.00
2023-09-10T01:55:48.515Z,19.02
2023-09-10T01:58:16.086Z,19.01
2023-09-10T02:00:43.094Z,18.98
2023-09-10T02:03:09.778Z,18.97
2023-09-10T02:05:36.397Z,18.96
2023-09-10T02:08:03.501Z,18.94
2023-09-10T02:10:33.618Z,18.91
2023-09-10T02:13:00.111Z,18.92
2023-09-10T02:15:27.687Z,18.89
2023-09-10T02:17:54.764Z,18.82
2023-09-10T02:20:21.470Z,18.84
2023-09-10T02:22:48.089Z,18.84
2023-09-10T02:25:15.137Z,18.84
2023-09-10T02:27:41.794Z,18.82
2023-09-10T02:30:09.222Z,18.78
2023-09-10T02:32:37.196Z,18.85
2023-09-10T02:35:04.487Z,18.79
2023-09-10T02:37:32.784Z,18.82
2023-09-10T02:39:59.323Z,18.83
2023-09-10T02:42:25.852Z,18.83
2023-09-10T02:44:52.404Z,18.84
2023-09-10T02:47:19.065Z,18.82
2023-09-10T02:49:45.633Z,18.84
2023-09-10T02:52:12.186Z,18.85
2023-09-10T02:54:38.718Z,18.84
2023-09-10T02:57:05.307Z,18.82
2023-09-10T02:59:31.855Z,18.81
2023-09-10T03:01:58.516Z,18.76
2023-09-10T03:04:25.225Z,18.73
2023-09-10T03:06:52.734Z,18.78
2023-09-10T03:09:19.414Z,18.76
2023-09-10T03:11:46.839Z,18.73
2023-09-10T03:14:13.416Z,18.71
2023-09-10T03:16:41.004Z,18.68
2023-09-10T03:19:07.881Z,18.68
2023-09-10T03:21:36.639Z,18.70
2023-09-10T03:24:03.212Z,18.71
2023-09-10T03:26:29.731Z,18.68
2023-09-10T03:28:56.238Z,18.61
2023-09-10T03:31:22.857Z,18.63
2023-09-10T03:33:50.048Z,18.64
2023-09-10T03:36:16.564Z,18.60
2023-09-10T03:38:43.117Z,18.58
2023-09-10T03:41:09.717Z,18.58
2023-09-10T03:43:36.335Z,18.51
2023-09-10T03:46:02.965Z,18.51
2023-09-10T03:48:29.468Z,18.53
2023-09-10T03:50:56.140Z,18.51
2023-09-10T03:53:22.712Z,18.50
2023-09-10T03:55:49.345Z,18.45
2023-09-10T03:58:15.888Z,18.44
2023-09-10T04:00:43.117Z,18.45
2023-09-10T04:03:09.950Z,18.43
2023-09-10T04:05:36.793Z,18.37
2023-09-10T04:08:04.435Z,18.37
2023-09-10T04:10:31.203Z,18.33
2023-09-10T04:12:57.715Z,18.31
2023-09-10T04:15:24.222Z,18.27
2023-09-10T04:17:50.859Z,18.28
2023-09-10T04:20:17.690Z,18.28
2023-09-10T04:22:44.241Z,18.28
2023-09-10T04:25:10.845Z,18.31
2023-09-10T04:27:37.487Z,18.20
2023-09-10T04:30:05.637Z,18.27
2023-09-10T04:32:32.675Z,18.23
2023-09-10T04:34:59.278Z,18.23
2023-09-10T04:37:25.936Z,18.27
2023-09-10T04:39:52.955Z,18.25
2023-09-10T04:42:19.463Z,18.18
2023-09-10T04:44:46.056Z,18.21
2023-09-10T04:47:12.686Z,18.22
2023-09-10T04:49:39.348Z,18.26
2023-09-10T04:52:06.183Z,18.27
2023-09-10T04:54:32.884Z,18.27
2023-09-10T04:57:00.655Z,18.31
2023-09-10T04:59:27.588Z,18.30
2023-09-10T05:01:54.271Z,18.31
2023-09-10T05:04:21.129Z,18.32
2023-09-10T05:06:47.784Z,18.35
2023-09-10T05:09:14.415Z,18.34
2023-09-10T05:11:40.951Z,18.38
2023-09-10T05:14:07.562Z,18.40
2023-09-10T05:16:34.217Z,18.45
2023-09-10T05:19:00.833Z,18.49
2023-09-10T05:21:27.349Z,18.46
2023-09-10T05:23:53.951Z,18.56
2023-09-10T05:26:20.563Z,18.54
2023-09-10T05:28:47.635Z,18.57
2023-09-10T05:31:14.470Z,18.63
2023-09-10T05:33:41.157Z,18.58
2023-09-10T05:36:08.050Z,18.68
2023-09-10T05:38:34.742Z,18.70
2023-09-10T05:41:05.089Z,18.73
2023-09-10T05:43:32.472Z,18.75
2023-09-10T05:45:59.564Z,18.82
2023-09-10T05:48:26.207Z,18.87
2023-09-10T05:50:57.958Z,18.93
2023-09-10T05:53:24.697Z,19.01
2023-09-10T05:55:51.329Z,19.13
2023-09-10T05:58:17.983Z,19.36
2023-09-10T06:00:44.480Z,19.65
2023-09-10T06:03:11.070Z,19.95
2023-09-10T06:05:37.742Z,20.28
2023-09-10T06:08:04.728Z,20.58
2023-09-10T06:10:31.312Z,20.88
2023-09-10T06:12:57.854Z,21.17
2023-09-10T06:15:24.773Z,21.52
2023-09-10T06:17:51.369Z,21.88
2023-09-10T06:20:17.975Z,22.21
2023-09-10T06:22:44.624Z,22.48
2023-09-10T06:25:11.206Z,22.81
2023-09-10T06:27:37.850Z,23.12
2023-09-10T06:30:04.930Z,23.54
2023-09-10T06:32:31.495Z,23.92
2023-09-10T06:34:58.171Z,24.31
2023-09-10T06:37:25.051Z,24.71
2023-09-10T06:39:51.733Z,25.08
2023-09-10T06:42:18.337Z,25.47
2023-09-10T06:44:44.993Z,25.81
2023-09-10T06:47:12.175Z,26.14
2023-09-10T06:49:41.510Z,26.53
2023-09-10T06:52:10.848Z,26.86
2023-09-10T06:54:37.490Z,27.20
2023-09-10T06:57:04.390Z,27.39
2023-09-10T06:59:31.128Z,27.75
2023-09-10T07:01:57.673Z,27.97
2023-09-10T07:04:25.878Z,28.30
2023-09-10T07:06:53.925Z,28.56
2023-09-10T07:09:24.137Z,28.83
2023-09-10T07:11:52.295Z,28.95
2023-09-10T07:14:19.982Z,29.17
2023-09-10T07:16:47.723Z,29.24
2023-09-10T07:19:15.131Z,29.36
2023-09-10T07:21:41.754Z,29.70
2023-09-10T07:24:10.521Z,29.96
2023-09-10T07:26:38.105Z,30.19
2023-09-10T07:29:08.829Z,30.52
2023-09-10T07:31:36.446Z,30.75
2023-09-10T07:34:03.948Z,31.16
2023-09-10T07:36:30.594Z,31.43
2023-09-10T07:38:57.188Z,31.69
2023-09-10T07:41:23.808Z,31.91
2023-09-10T07:43:50.884Z,32.04
2023-09-10T07:46:17.407Z,32.34
2023-09-10T07:48:43.950Z,32.71
2023-09-10T07:51:10.449Z,32.91
2023-09-10T07:53:36.965Z,32.90
2023-09-10T07:56:04.984Z,33.11
2023-09-10T07:58:31.697Z,33.19
2023-09-10T08:00:58.625Z,33.39
2023-09-10T08:03:25.501Z,33.47
2023-09-10T08:05:52.337Z,33.61
2023-09-10T08:08:18.909Z,33.75
2023-09-10T08:10:46.883Z,33.80
2023-09-10T08:13:14.610Z,33.95
2023-09-10T08:15:42.246Z,33.68
2023-09-10T08:18:12.321Z,33.82
2023-09-10T08:20:43.353Z,34.16
2023-09-10T08:23:10.686Z,34.42
2023-09-10T08:25:37.575Z,34.49
2023-09-10T08:28:04.766Z,34.56
2023-09-10T08:30:31.711Z,34.59
2023-09-10T08:32:58.664Z,34.73
2023-09-10T08:35:44.559Z,34.83
2023-09-10T08:38:11.301Z,34.45
2023-09-10T08:40:51.431Z,34.81
2023-09-10T08:43:23.024Z,34.82
2023-09-10T08:45:50.536Z,35.06
2023-09-10T08:48:19.973Z,35.37
2023-09-10T08:50:47.950Z,35.60
2023-09-10T08:53:17.455Z,35.28
2023-09-10T08:55:47.452Z,35.27
2023-09-10T08:58:15.159Z,35.61
2023-09-10T09:00:44.290Z,35.69
2023-09-10T09:03:11.270Z,35.14
2023-09-10T09:05:40.782Z,35.36
2023-09-10T09:08:15.957Z,35.71
2023-09-10T09:10:42.868Z,35.90
2023-09-10T09:13:12.079Z,35.21
2023-09-10T09:15:41.678Z,35.40
2023-09-10T09:18:12.384Z,35.38
2023-09-10T09:20:41.168Z,35.07
2023-09-10T09:23:13.944Z,34.96
2023-09-10T09:25:41.332Z,34.30
2023-09-10T09:28:11.596Z,33.45
2023-09-10T09:30:38.295Z,33.45
2023-09-10T09:33:05.927Z,33.69
2023-09-10T09:35:35.653Z,34.06
2023-09-10T09:38:06.770Z,34.26
2023-09-10T09:40:35.006Z,34.23
2023-09-10T09:43:16.847Z,33.33
2023-09-10T09:45:45.502Z,33.42
2023-09-10T09:48:12.147Z,33.54
2023-09-10T09:50:39.358Z,33.51
2023-09-10T09:53:05.969Z,33.78
2023-09-10T09:55:32.629Z,33.75
2023-09-10T09:57:59.253Z,33.48
2023-09-10T10:00:25.798Z,33.76
2023-09-10T10:02:53.451Z,34.25
2023-09-10T10:05:20.282Z,34.29
2023-09-10T10:07:52.362Z,34.08
2023-09-10T10:10:20.455Z,34.34
2023-09-10T10:12:47.195Z,34.60
2023-09-10T10:15:14.569Z,34.55
2023-09-10T10:17:43.702Z,34.65
2023-09-10T10:20:10.910Z,34.50
2023-09-10T10:22:38.107Z,34.84
2023-09-10T10:25:08.129Z,34.99
2023-09-10T10:27:37.601Z,34.59
2023-09-10T10:30:05.019Z,34.82
2023-09-10T10:32:43.498Z,35.07
2023-09-10T10:35:11.357Z,35.01
2023-09-10T10:37:53.398Z,34.60
2023-09-10T10:40:26.741Z,34.97
2023-09-10T10:43:09.011Z,34.73
2023-09-10T10:45:36.344Z,34.98
2023-09-10T10:48:12.955Z,34.08
2023-09-10T10:50:40.805Z,34.35
2023-09-10T10:53:12.582Z,34.90
2023-09-10T10:55:40.738Z,34.54
2023-09-10T10:58:07.324Z,34.69
2023-09-10T11:00:34.175Z,34.66
2023-09-10T11:03:12.988Z,34.99
2023-09-10T11:06:06.880Z,35.26
2023-09-10T11:08:41.431Z,34.86
2023-09-10T11:11:09.979Z,35.11
2023-09-10T11:13:59.796Z,35.25
2023-09-10T11:16:29.987Z,35.59
2023-09-10T11:18:56.627Z,35.64
2023-09-10T11:21:55.542Z,35.59
2023-09-10T11:24:22.119Z,35.91
2023-09-10T11:26:49.134Z,36.12
2023-09-10T11:29:20.010Z,35.24
2023-09-10T11:31:53.286Z,35.67
2023-09-10T11:34:28.742Z,35.79
2023-09-10T11:37:06.258Z,36.09
2023-09-10T11:39:35.384Z,36.37
2023-09-10T11:42:05.508Z,36.43
2023-09-10T11:44:32.065Z,36.65
2023-09-10T11:46:58.779Z,36.68
2023-09-10T11:49:26.211Z,36.85
2023-09-10T11:51:56.544Z,36.24
2023-09-10T11:54:23.928Z,36.10
2023-09-10T11:56:52.822Z,35.96
2023-09-10T11:59:22.025Z,35.35
2023-09-10T12:01:48.546Z,35.44
2023-09-10T12:04:18.066Z,35.43
2023-09-10T12:06:45.564Z,35.33
2023-09-10T12:09:14.284Z,35.17
2023-09-10T12:11:43.095Z,35.21
2023-09-10T12:14:10.008Z,35.23
2023-09-10T12:16:36.819Z,34.80
2023-09-10T12:19:03.710Z,34.72
2023-09-10T12:21:30.398Z,34.94
2023-09-10T12:23:57.163Z,35.23
2023-09-10T12:26:23.827Z,35.52
2023-09-10T12:28:53.172Z,35.77
2023-09-10T12:31:20.780Z,35.96
2023-09-10T12:33:47.448Z,36.20
2023-09-10T12:36:15.409Z,36.21
2023-09-10T12:38:42.503Z,35.95
2023-09-10T12:41:09.844Z,36.07
2023-09-10T12:43:36.576Z,35.67
2023-09-10T12:46:03.251Z,35.69
2023-09-10T12:48:30.334Z,35.79
2023-09-10T12:50:58.864Z,36.05
2023-09-10T12:53:25.840Z,36.13
2023-09-10T12:55:55.804Z,36.39
2023-09-10T12:58:22.863Z,36.61
2023-09-10T13:00:59.739Z,36.14
2023-09-10T13:03:28.283Z,36.23
2023-09-10T13:05:55.410Z,36.09
2023-09-10T13:08:22.152Z,36.26
2023-09-10T13:10:48.904Z,36.40
2023-09-10T13:13:15.489Z,36.37
2023-09-10T13:15:42.053Z,36.40
2023-09-10T13:18:08.896Z,36.35
2023-09-10T13:20:35.725Z,35.80
2023-09-10T13:23:02.346Z,35.91
2023-09-10T13:25:28.953Z,35.98
2023-09-10T13:27:55.639Z,36.06
2023-09-10T13:30:22.200Z,35.92
2023-09-10T13:32:48.809Z,35.74
2023-09-10T13:35:15.424Z,35.80
2023-09-10T13:37:42.769Z,35.59
2023-09-10T13:40:10.760Z,35.66
2023-09-10T13:42:37.279Z,35.83
2023-09-10T13:45:04.287Z,35.88
2023-09-10T13:47:31.658Z,36.10
2023-09-10T13:49:58.320Z,36.07
2023-09-10T13:52:24.954Z,35.66
2023-09-10T13:54:51.609Z,35.41
2023-09-10T13:57:18.134Z,35.44
2023-09-10T13:59:44.606Z,35.23
2023-09-10T14:02:11.190Z,35.27
2023-09-10T14:04:37.862Z,35.17
2023-09-10T14:07:04.712Z,35.12
2023-09-10T14:09:31.261Z,35.12
2023-09-10T14:11:57.775Z,34.82
2023-09-10T14:14:24.503Z,34.85
2023-09-10T14:16:51.037Z,35.01
2023-09-10T14:19:17.568Z,34.95
2023-09-10T14:21:44.135Z,34.92
2023-09-10T14:24:10.746Z,34.93
2023-09-10T14:26:37.293Z,34.96
2023-09-10T14:29:03.979Z,34.87
2023-09-10T14:31:30.696Z,34.93
2023-09-10T14:33:57.263Z,34.87
2023-09-10T14:36:24.667Z,34.84
2023-09-10T14:38:51.293Z,34.73
2023-09-10T14:41:18.680Z,34.57
2023-09-10T14:43:45.395Z,34.45
2023-09-10T14:46:12.058Z,34.57
2023-09-10T14:48:38.679Z,34.82
2023-09-10T14:51:05.202Z,34.99
2023-09-10T14:53:33.251Z,35.23
2023-09-10T14:55:59.957Z,35.22
2023-09-10T14:58:26.699Z,35.01
2023-09-10T15:00:53.509Z,34.97
2023-09-10T15:03:22.464Z,34.98
2023-09-10T15:05:49.401Z,35.06
2023-09-10T15:08:16.032Z,35.08
2023-09-10T15:10:42.761Z,35.04
2023-09-10T15:13:09.309Z,34.95
2023-09-10T15:15:36.011Z,34.97
2023-09-10T15:18:02.701Z,34.97
2023-09-10T15:20:29.380Z,35.06
2023-09-10T15:22:55.979Z,35.14
2023-09-10T15:25:22.527Z,35.20
2023-09-10T15:27:49.148Z,35.16
2023-09-10T15:30:15.847Z,35.10
2023-09-10T15:32:42.480Z,35.08
2023-09-10T15:35:09.187Z,34.98
2023-09-10T15:37:35.716Z,34.73
2023-09-10T15:40:02.337Z,34.47
2023-09-10T15:42:28.853Z,34.30
2023-09-10T15:44:55.389Z,34.22
2023-09-10T15:47:21.969Z,33.97
2023-09-10T15:49:48.556Z,33.70
2023-09-10T15:52:15.303Z,33.55
2023-09-10T15:54:41.827Z,33.40
2023-09-10T15:57:08.471Z,33.51
2023-09-10T15:59:35.124Z,33.47
2023-09-10T16:02:17.437Z,33.35
2023-09-10T16:04:44.186Z,33.31
2023-09-10T16:07:10.835Z,33.39
2023-09-10T16:09:37.505Z,33.33
2023-09-10T16:12:04.442Z,33.47
2023-09-10T16:14:31.050Z,33.51
2023-09-10T16:16:57.590Z,33.44
2023-09-10T16:19:24.318Z,33.45
2023-09-10T16:21:50.957Z,33.16
2023-09-10T16:24:17.577Z,32.95
2023-09-10T16:26:44.222Z,32.88
2023-09-10T16:29:10.962Z,32.75
2023-09-10T16:31:37.575Z,32.73
2023-09-10T16:34:04.293Z,32.70
2023-09-10T16:36:34.629Z,32.62
2023-09-10T16:39:01.922Z,32.48
2023-09-10T16:41:28.590Z,32.43
2023-09-10T16:43:55.155Z,32.38
2023-09-10T16:46:22.170Z,32.38
2023-09-10T16:48:48.731Z,32.40
2023-09-10T16:51:15.241Z,32.43
2023-09-10T16:53:42.971Z,32.34
2023-09-10T16:56:09.787Z,32.13
2023-09-10T16:58:36.300Z,32.08
2023-09-10T17:01:02.878Z,31.91
2023-09-10T17:03:29.696Z,31.74
2023-09-10T17:05:57.684Z,31.67
2023-09-10T17:08:24.257Z,31.56
2023-09-10T17:10:51.122Z,31.39
2023-09-10T17:13:19.033Z,31.30
2023-09-10T17:15:45.632Z,31.11
2023-09-10T17:18:12.421Z,30.90
2023-09-10T17:20:39.006Z,30.89
2023-09-10T17:23:05.606Z,30.86
2023-09-10T17:25:32.679Z,30.79
2023-09-10T17:27:59.264Z,30.76
2023-09-10T17:30:25.822Z,30.72
2023-09-10T17:32:57.486Z,30.65
2023-09-10T17:35:24.530Z,30.64
2023-09-10T17:37:52.341Z,30.55
2023-09-10T17:40:18.921Z,30.40
2023-09-10T17:42:45.632Z,30.26
2023-09-10T17:45:12.199Z,30.02
2023-09-10T17:47:38.927Z,29.88
2023-09-10T17:50:07.992Z,29.69
2023-09-10T17:52:35.872Z,29.51
2023-09-10T17:55:06.227Z,29.35
2023-09-10T17:57:34.250Z,29.15
2023-09-10T18:00:00.853Z,29.00
2023-09-10T18:02:28.372Z,28.85
2023-09-10T18:04:55.309Z,28.67
2023-09-10T18:07:21.969Z,28.61
2023-09-10T18:09:49.373Z,28.49
2023-09-10T18:12:16.022Z,28.36
2023-09-10T18:14:42.910Z,28.26
2023-09-10T18:17:09.844Z,28.16
2023-09-10T18:19:36.391Z,28.00
2023-09-10T18:22:03.266Z,27.88
2023-09-10T18:24:29.898Z,27.76
2023-09-10T18:26:58.452Z,27.66
2023-09-10T18:29:25.516Z,27.54
2023-09-10T18:31:52.637Z,27.41
2023-09-10T18:34:19.640Z,27.30
2023-09-10T18:36:46.202Z,27.17
2023-09-10T18:39:13.291Z,27.07
2023-09-10T18:41:40.438Z,26.99
2023-09-10T18:44:08.048Z,26.94
2023-09-10T18:46:34.841Z,26.84
2023-09-10T18:49:01.388Z,26.76
2023-09-10T18:51:28.008Z,26.70
2023-09-10T18:53:54.621Z,26.60
2023-09-10T18:56:21.326Z,26.51
2023-09-10T18:58:47.938Z,26.42
2023-09-10T19:01:14.588Z,26.35
2023-09-10T19:03:41.809Z,26.23
2023-09-10T19:06:08.714Z,26.20
2023-09-10T19:08:35.290Z,26.13
2023-09-10T19:11:01.932Z,26.03
2023-09-10T19:13:28.556Z,25.85
2023-09-10T19:15:55.152Z,25.82
2023-09-10T19:18:21.807Z,25.78
2023-09-10T19:20:50.008Z,25.72
2023-09-10T19:23:16.611Z,25.64
2023-09-10T19:25:43.841Z,25.58
2023-09-10T19:28:10.379Z,25.51
2023-09-10T19:30:38.049Z,25.48
2023-09-10T19:33:05.261Z,25.43
2023-09-10T19:35:31.989Z,25.37
2023-09-10T19:37:58.690Z,25.28
2023-09-10T19:40:25.337Z,25.28
2023-09-10T19:42:51.961Z,25.23
2023-09-10T19:45:18.718Z,25.17
2023-09-10T19:47:46.355Z,25.05
2023-09-10T19:50:13.119Z,25.03
2023-09-10T19:52:44.516Z,24.97
2023-09-10T19:55:11.739Z,24.91
2023-09-10T19:57:41.626Z,24.84
2023-09-10T20:00:10.425Z,24.79
2023-09-10T20:02:39.899Z,24.71
2023-09-10T20:05:07.333Z,24.65
2023-09-10T20:07:33.945Z,24.63
2023-09-10T20:10:01.081Z,24.55
2023-09-10T20:12:27.728Z,24.51
2023-09-10T20:14:54.354Z,24.45
2023-09-10T20:17:21.053Z,24.43
2023-09-10T20:19:47.604Z,24.39
2023-09-10T20:22:15.514Z,24.32
2023-09-10T20:24:42.136Z,24.27
2023-09-10T20:27:08.700Z,24.24
2023-09-10T20:29:35.440Z,24.19
2023-09-10T20:32:02.027Z,24.15
2023-09-10T20:34:28.531Z,24.10
2023-09-10T20:36:55.025Z,24.11
2023-09-10T20:39:21.546Z,24.06
2023-09-10T20:41:48.236Z,24.10
2023-09-10T20:44:14.785Z,24.03
2023-09-10T20:46:41.426Z,24.05
2023-09-10T20:49:07.968Z,24.00
2023-09-10T20:51:34.602Z,23.92
2023-09-10T20:54:01.224Z,23.88
2023-09-10T20:56:27.823Z,23.82
2023-09-10T20:58:54.742Z,23.77
2023-09-10T21:01:21.581Z,23.71
2023-09-10T21:03:48.654Z,23.64
2023-09-10T21:06:15.706Z,23.60
2023-09-10T21:08:42.584Z,23.58
2023-09-10T21:11:09.464Z,23.52
2023-09-10T21:13:36.045Z,23.52
2023-09-10T21:16:03.040Z,23.51
2023-09-10T21:18:29.732Z,23.47
2023-09-10T21:20:56.385Z,23.44
2023-09-10T21:23:25.149Z,23.40
2023-09-10T21:25:51.681Z,23.36
2023-09-10T21:28:18.178Z,23.31
2023-09-10T21:30:49.194Z,23.14
2023-09-10T21:33:15.950Z,23.20
2023-09-10T21:35:46.434Z,23.17
2023-09-10T21:38:14.896Z,23.19
2023-09-10T21:40:41.983Z,23.11
2023-09-10T21:43:08.946Z,23.09
2023-09-10T21:48:06.623Z,23.04
2023-09-10T21:50:33.250Z,22.97
2023-09-10T21:52:59.799Z,22.95
2023-09-10T21:55:26.352Z,22.91
2023-09-10T21:57:53.017Z,22.89
2023-09-10T22:00:19.699Z,22.88
2023-09-10T22:02:46.322Z,22.83
2023-09-10T22:05:12.952Z,22.80
2023-09-10T22:07:39.579Z,22.79
2023-09-10T22:10:06.731Z,22.78
2023-09-10T22:12:33.280Z,22.81
2023-09-10T22:15:04.897Z,22.76
2023-09-10T22:17:31.550Z,22.71
2023-09-10T22:19:58.172Z,22.68
2023-09-10T22:22:24.704Z,22.69
2023-09-10T22:24:51.213Z,22.73
2023-09-10T22:27:17.726Z,22.73
2023-09-10T22:29:44.261Z,22.76
2023-09-10T22:32:10.844Z,22.74
2023-09-10T22:34:37.378Z,22.73
2023-09-10T22:37:04.032Z,22.70
2023-09-10T22:39:32.502Z,22.69
2023-09-10T22:41:59.260Z,22.69
2023-09-10T22:44:25.857Z,22.69
2023-09-10T22:46:52.424Z,22.71
2023-09-10T22:49:19.026Z,22.67
2023-09-10T22:51:45.617Z,22.62
2023-09-10T22:54:12.220Z,22.52
2023-09-10T22:56:40.468Z,22.49
2023-09-10T22:59:08.450Z,22.54
2023-09-10T23:01:35.836Z,22.54
2023-09-10T23:04:02.621Z,22.48
2023-09-10T23:06:29.334Z,22.53
2023-09-10T23:08:55.905Z,22.48
2023-09-10T23:11:22.685Z,22.42
2023-09-10T23:13:49.220Z,22.30
2023-09-10T23:16:15.728Z,22.30
2023-09-10T23:18:42.600Z,22.26
2023-09-10T23:21:09.326Z,22.19
2023-09-10T23:23:35.924Z,22.21
2023-09-10T23:26:02.689Z,22.18
2023-09-10T23:28:29.372Z,22.14
2023-09-10T23:30:55.929Z,22.06
2023-09-10T23:33:22.610Z,21.98
2023-09-10T23:35:49.296Z,22.00
2023-09-10T23:38:16.027Z,21.98
2023-09-10T23:40:54.792Z,21.94
2023-09-10T23:43:21.426Z,21.90
2023-09-10T23:45:48.076Z,21.88
2023-09-10T23:48:15.644Z,21.79
2023-09-10T23:50:42.220Z,21.76
2023-09-10T23:53:08.741Z,21.70
2023-09-10T23:55:36.793Z,21.71
2023-09-10T23:58:03.798Z,21.70
